sensor_id;sensor_type;location;lat;lon;timestamp;temperature;humidity
23691;DHT22;43867;50.836;4.364;2022-07-05T00:01:38;17.50;99.90
23691;DHT22;43867;50.836;4.364;2022-07-05T00:04:04;17.50;99.90
23691;DHT22;43867;50.836;4.364;2022-07-05T00:06:29;17.60;99.90
23691;DHT22;43867;50.836;4.364;2022-07-05T00:08:55;17.60;99.90
23691;DHT22;43867;50.836;4.364;2022-07-05T00:11:21;17.50;99.90
23691;DHT22;43867;50.836;4.364;2022-07-05T00:13:46;17.50;99.90
23691;DHT22;43867;50.836;4.364;2022-07-05T00:16:12;17.50;99.90
23691;DHT22;43867;50.836;4.364;2022-07-05T00:18:37;17.70;99.90
23691;DHT22;43867;50.836;4.364;2022-07-05T00:21:03;17.70;99.90
23691;DHT22;43867;50.836;4.364;2022-07-05T00:23:28;17.60;99.90
23691;DHT22;43867;50.836;4.364;2022-07-05T00:25:54;17.50;99.90
23691;DHT22;43867;50.836;4.364;2022-07-05T00:28:19;17.50;99.90
23691;DHT22;43867;50.836;4.364;2022-07-05T00:30:45;17.50;99.90
23691;DHT22;43867;50.836;4.364;2022-07-05T00:33:11;17.40;99.90
23691;DHT22;43867;50.836;4.364;2022-07-05T00:35:36;17.30;99.90
23691;DHT22;43867;50.836;4.364;2022-07-05T00:38:02;17.50;99.90
23691;DHT22;43867;50.836;4.364;2022-07-05T00:40:28;17.40;99.90
23691;DHT22;43867;50.836;4.364;2022-07-05T00:42:53;17.40;99.90
23691;DHT22;43867;50.836;4.364;2022-07-05T00:45:19;17.50;99.90
23691;DHT22;43867;50.836;4.364;2022-07-05T00:47:44;17.50;99.90
23691;DHT22;43867;50.836;4.364;2022-07-05T00:50:10;17.40;99.90
23691;DHT22;43867;50.836;4.364;2022-07-05T00:52:35;17.40;99.90
23691;DHT22;43867;50.836;4.364;2022-07-05T00:55:01;17.30;99.90
23691;DHT22;43867;50.836;4.364;2022-07-05T00:57:27;17.30;99.90
23691;DHT22;43867;50.836;4.364;2022-07-05T00:59:53;17.30;99.90
23691;DHT22;43867;50.836;4.364;2022-07-05T01:02:18;17.40;99.90
23691;DHT22;43867;50.836;4.364;2022-07-05T01:04:49;17.40;99.90
23691;DHT22;43867;50.836;4.364;2022-07-05T01:07:17;17.40;99.90
23691;DHT22;43867;50.836;4.364;2022-07-05T01:09:43;17.40;99.90
23691;DHT22;43867;50.836;4.364;2022-07-05T01:12:08;17.40;99.90
23691;DHT22;43867;50.836;4.364;2022-07-05T01:14:35;17.30;99.90
23691;DHT22;43867;50.836;4.364;2022-07-05T01:17:00;17.30;99.90
23691;DHT22;43867;50.836;4.364;2022-07-05T01:19:26;17.30;99.90
23691;DHT22;43867;50.836;4.364;2022-07-05T01:21:51;17.30;99.90
23691;DHT22;43867;50.836;4.364;2022-07-05T01:24:18;17.30;99.90
23691;DHT22;43867;50.836;4.364;2022-07-05T01:26:48;17.20;99.90
23691;DHT22;43867;50.836;4.364;2022-07-05T01:29:14;17.20;99.90
23691;DHT22;43867;50.836;4.364;2022-07-05T01:31:42;17.10;99.90
23691;DHT22;43867;50.836;4.364;2022-07-05T01:34:09;17.00;99.90
23691;DHT22;43867;50.836;4.364;2022-07-05T01:36:34;16.80;99.90
23691;DHT22;43867;50.836;4.364;2022-07-05T01:39:00;16.80;99.90
23691;DHT22;43867;50.836;4.364;2022-07-05T01:41:26;16.80;99.90
23691;DHT22;43867;50.836;4.364;2022-07-05T01:43:52;16.70;99.90
23691;DHT22;43867;50.836;4.364;2022-07-05T01:46:18;16.70;99.90
23691;DHT22;43867;50.836;4.364;2022-07-05T01:48:46;16.60;99.90
23691;DHT22;43867;50.836;4.364;2022-07-05T01:51:20;16.50;99.90
23691;DHT22;43867;50.836;4.364;2022-07-05T01:53:49;16.50;99.90
23691;DHT22;43867;50.836;4.364;2022-07-05T01:56:15;16.40;99.90
23691;DHT22;43867;50.836;4.364;2022-07-05T01:58:41;16.40;99.90
23691;DHT22;43867;50.836;4.364;2022-07-05T02:01:07;16.30;99.90
23691;DHT22;43867;50.836;4.364;2022-07-05T02:03:33;16.20;99.90
23691;DHT22;43867;50.836;4.364;2022-07-05T02:05:59;16.20;99.90
23691;DHT22;43867;50.836;4.364;2022-07-05T02:08:28;16.20;99.90
23691;DHT22;43867;50.836;4.364;2022-07-05T02:10:55;16.10;99.90
23691;DHT22;43867;50.836;4.364;2022-07-05T02:13:21;16.10;99.90
23691;DHT22;43867;50.836;4.364;2022-07-05T02:15:46;16.10;99.90
23691;DHT22;43867;50.836;4.364;2022-07-05T02:18:12;16.20;99.90
23691;DHT22;43867;50.836;4.364;2022-07-05T02:20:38;16.10;99.90
23691;DHT22;43867;50.836;4.364;2022-07-05T02:23:04;16.10;99.90
23691;DHT22;43867;50.836;4.364;2022-07-05T02:25:29;16.10;99.90
23691;DHT22;43867;50.836;4.364;2022-07-05T02:27:55;16.10;99.90
23691;DHT22;43867;50.836;4.364;2022-07-05T02:30:21;16.00;99.90
23691;DHT22;43867;50.836;4.364;2022-07-05T02:32:46;16.00;99.90
23691;DHT22;43867;50.836;4.364;2022-07-05T02:35:12;16.00;99.90
23691;DHT22;43867;50.836;4.364;2022-07-05T02:37:39;16.00;99.90
23691;DHT22;43867;50.836;4.364;2022-07-05T02:40:07;16.00;99.90
23691;DHT22;43867;50.836;4.364;2022-07-05T02:42:33;16.00;99.90
23691;DHT22;43867;50.836;4.364;2022-07-05T02:44:59;16.00;99.90
23691;DHT22;43867;50.836;4.364;2022-07-05T02:47:24;16.00;99.90
23691;DHT22;43867;50.836;4.364;2022-07-05T02:49:53;16.00;99.90
23691;DHT22;43867;50.836;4.364;2022-07-05T02:52:18;16.00;99.90
23691;DHT22;43867;50.836;4.364;2022-07-05T02:54:44;15.90;99.90
23691;DHT22;43867;50.836;4.364;2022-07-05T02:57:09;15.80;99.90
23691;DHT22;43867;50.836;4.364;2022-07-05T02:59:35;15.80;99.90
23691;DHT22;43867;50.836;4.364;2022-07-05T03:02:00;15.80;99.90
23691;DHT22;43867;50.836;4.364;2022-07-05T03:04:26;15.70;99.90
23691;DHT22;43867;50.836;4.364;2022-07-05T03:06:51;15.70;99.90
23691;DHT22;43867;50.836;4.364;2022-07-05T03:09:17;15.70;99.90
23691;DHT22;43867;50.836;4.364;2022-07-05T03:11:43;15.70;99.90
23691;DHT22;43867;50.836;4.364;2022-07-05T03:14:08;15.60;99.90
23691;DHT22;43867;50.836;4.364;2022-07-05T03:16:34;15.60;99.90
23691;DHT22;43867;50.836;4.364;2022-07-05T03:19:00;15.60;99.90
23691;DHT22;43867;50.836;4.364;2022-07-05T03:21:25;15.50;99.90
23691;DHT22;43867;50.836;4.364;2022-07-05T03:23:51;15.50;99.90
23691;DHT22;43867;50.836;4.364;2022-07-05T03:26:16;15.50;99.90
23691;DHT22;43867;50.836;4.364;2022-07-05T03:28:42;15.50;99.90
23691;DHT22;43867;50.836;4.364;2022-07-05T03:31:07;15.50;99.90
23691;DHT22;43867;50.836;4.364;2022-07-05T03:33:33;15.40;99.90
23691;DHT22;43867;50.836;4.364;2022-07-05T03:35:58;15.40;99.90
23691;DHT22;43867;50.836;4.364;2022-07-05T03:38:24;15.40;99.90
23691;DHT22;43867;50.836;4.364;2022-07-05T03:40:50;15.30;99.90
23691;DHT22;43867;50.836;4.364;2022-07-05T03:43:15;15.20;99.90
23691;DHT22;43867;50.836;4.364;2022-07-05T03:45:41;15.20;99.90
23691;DHT22;43867;50.836;4.364;2022-07-05T03:48:06;15.20;99.90
23691;DHT22;43867;50.836;4.364;2022-07-05T03:50:32;15.20;99.90
23691;DHT22;43867;50.836;4.364;2022-07-05T03:52:57;15.20;99.90
23691;DHT22;43867;50.836;4.364;2022-07-05T03:55:24;15.30;99.90
23691;DHT22;43867;50.836;4.364;2022-07-05T03:57:50;15.30;99.90
23691;DHT22;43867;50.836;4.364;2022-07-05T04:00:16;15.30;99.90
23691;DHT22;43867;50.836;4.364;2022-07-05T04:02:42;15.30;99.90
23691;DHT22;43867;50.836;4.364;2022-07-05T04:05:07;15.30;99.90
23691;DHT22;43867;50.836;4.364;2022-07-05T04:07:34;15.30;99.90
23691;DHT22;43867;50.836;4.364;2022-07-05T04:09:59;15.40;99.90
23691;DHT22;43867;50.836;4.364;2022-07-05T04:12:25;15.30;99.90
23691;DHT22;43867;50.836;4.364;2022-07-05T04:14:51;15.30;99.90
23691;DHT22;43867;50.836;4.364;2022-07-05T04:17:17;15.30;99.90
23691;DHT22;43867;50.836;4.364;2022-07-05T04:19:42;15.20;99.90
23691;DHT22;43867;50.836;4.364;2022-07-05T04:22:08;15.30;99.90
23691;DHT22;43867;50.836;4.364;2022-07-05T04:24:33;15.30;99.90
23691;DHT22;43867;50.836;4.364;2022-07-05T04:27:22;15.30;99.90
23691;DHT22;43867;50.836;4.364;2022-07-05T04:29:48;15.30;99.90
23691;DHT22;43867;50.836;4.364;2022-07-05T04:32:13;15.30;99.90
23691;DHT22;43867;50.836;4.364;2022-07-05T04:34:39;15.20;99.90
23691;DHT22;43867;50.836;4.364;2022-07-05T04:37:06;15.30;99.90
23691;DHT22;43867;50.836;4.364;2022-07-05T04:39:32;15.30;99.90
23691;DHT22;43867;50.836;4.364;2022-07-05T04:41:57;15.30;99.90
23691;DHT22;43867;50.836;4.364;2022-07-05T04:44:23;15.40;99.90
23691;DHT22;43867;50.836;4.364;2022-07-05T04:46:49;15.40;99.90
23691;DHT22;43867;50.836;4.364;2022-07-05T04:49:15;15.40;99.90
23691;DHT22;43867;50.836;4.364;2022-07-05T04:51:41;15.40;99.90
23691;DHT22;43867;50.836;4.364;2022-07-05T04:54:06;15.50;99.90
23691;DHT22;43867;50.836;4.364;2022-07-05T04:56:32;15.60;99.90
23691;DHT22;43867;50.836;4.364;2022-07-05T04:58:58;15.60;99.90
23691;DHT22;43867;50.836;4.364;2022-07-05T05:01:25;15.60;99.90
23691;DHT22;43867;50.836;4.364;2022-07-05T05:03:50;15.60;99.90
23691;DHT22;43867;50.836;4.364;2022-07-05T05:06:17;15.60;99.90
23691;DHT22;43867;50.836;4.364;2022-07-05T05:08:43;15.50;99.90
23691;DHT22;43867;50.836;4.364;2022-07-05T05:11:08;15.50;99.90
23691;DHT22;43867;50.836;4.364;2022-07-05T05:13:34;15.50;99.90
23691;DHT22;43867;50.836;4.364;2022-07-05T05:16:00;15.50;99.90
23691;DHT22;43867;50.836;4.364;2022-07-05T05:18:26;15.50;99.90
23691;DHT22;43867;50.836;4.364;2022-07-05T05:20:53;15.50;99.90
23691;DHT22;43867;50.836;4.364;2022-07-05T05:23:20;15.60;99.90
23691;DHT22;43867;50.836;4.364;2022-07-05T05:25:46;15.70;99.90
23691;DHT22;43867;50.836;4.364;2022-07-05T05:28:12;15.90;99.90
23691;DHT22;43867;50.836;4.364;2022-07-05T05:30:38;16.20;99.90
23691;DHT22;43867;50.836;4.364;2022-07-05T05:33:04;16.50;99.90
23691;DHT22;43867;50.836;4.364;2022-07-05T05:35:29;16.60;99.90
23691;DHT22;43867;50.836;4.364;2022-07-05T05:37:59;16.90;99.90
23691;DHT22;43867;50.836;4.364;2022-07-05T05:40:25;16.90;99.90
23691;DHT22;43867;50.836;4.364;2022-07-05T05:42:52;17.20;99.90
23691;DHT22;43867;50.836;4.364;2022-07-05T05:45:19;17.30;99.90
23691;DHT22;43867;50.836;4.364;2022-07-05T05:47:46;17.50;99.90
23691;DHT22;43867;50.836;4.364;2022-07-05T05:50:13;17.80;99.90
23691;DHT22;43867;50.836;4.364;2022-07-05T05:52:39;17.90;99.90
23691;DHT22;43867;50.836;4.364;2022-07-05T05:55:05;18.20;99.90
23691;DHT22;43867;50.836;4.364;2022-07-05T05:57:33;18.40;99.90
23691;DHT22;43867;50.836;4.364;2022-07-05T05:59:58;18.50;99.90
23691;DHT22;43867;50.836;4.364;2022-07-05T06:02:24;18.40;99.90
23691;DHT22;43867;50.836;4.364;2022-07-05T06:04:52;18.40;99.90
23691;DHT22;43867;50.836;4.364;2022-07-05T06:07:17;18.50;99.90
23691;DHT22;43867;50.836;4.364;2022-07-05T06:09:43;18.70;99.90
23691;DHT22;43867;50.836;4.364;2022-07-05T06:12:08;18.70;99.90
23691;DHT22;43867;50.836;4.364;2022-07-05T06:14:36;18.60;99.90
23691;DHT22;43867;50.836;4.364;2022-07-05T06:17:03;19.00;99.90
23691;DHT22;43867;50.836;4.364;2022-07-05T06:19:30;19.10;99.90
23691;DHT22;43867;50.836;4.364;2022-07-05T06:21:56;19.20;99.90
23691;DHT22;43867;50.836;4.364;2022-07-05T06:24:21;19.50;99.90
23691;DHT22;43867;50.836;4.364;2022-07-05T06:26:47;19.70;99.90
23691;DHT22;43867;50.836;4.364;2022-07-05T06:29:12;19.70;99.90
23691;DHT22;43867;50.836;4.364;2022-07-05T06:31:38;19.80;99.90
23691;DHT22;43867;50.836;4.364;2022-07-05T06:34:04;19.70;99.90
23691;DHT22;43867;50.836;4.364;2022-07-05T06:36:29;19.80;99.90
23691;DHT22;43867;50.836;4.364;2022-07-05T06:38:55;19.90;99.90
23691;DHT22;43867;50.836;4.364;2022-07-05T06:41:20;20.30;99.90
23691;DHT22;43867;50.836;4.364;2022-07-05T06:43:46;20.20;99.90
23691;DHT22;43867;50.836;4.364;2022-07-05T06:46:12;20.70;99.90
23691;DHT22;43867;50.836;4.364;2022-07-05T06:48:38;21.10;99.90
23691;DHT22;43867;50.836;4.364;2022-07-05T06:51:04;21.30;99.90
23691;DHT22;43867;50.836;4.364;2022-07-05T06:53:30;21.70;99.90
23691;DHT22;43867;50.836;4.364;2022-07-05T06:55:56;21.60;99.90
23691;DHT22;43867;50.836;4.364;2022-07-05T06:58:22;21.50;99.90
23691;DHT22;43867;50.836;4.364;2022-07-05T07:00:49;21.70;99.90
23691;DHT22;43867;50.836;4.364;2022-07-05T07:03:15;22.10;99.90
23691;DHT22;43867;50.836;4.364;2022-07-05T07:05:41;21.50;99.90
23691;DHT22;43867;50.836;4.364;2022-07-05T07:08:07;21.40;99.90
23691;DHT22;43867;50.836;4.364;2022-07-05T07:10:51;21.50;99.90
23691;DHT22;43867;50.836;4.364;2022-07-05T07:13:17;21.60;99.90
23691;DHT22;43867;50.836;4.364;2022-07-05T07:15:42;22.10;99.90
23691;DHT22;43867;50.836;4.364;2022-07-05T07:18:08;22.30;99.90
23691;DHT22;43867;50.836;4.364;2022-07-05T07:20:34;22.50;99.80
23691;DHT22;43867;50.836;4.364;2022-07-05T07:23:00;22.20;99.70
23691;DHT22;43867;50.836;4.364;2022-07-05T07:25:25;22.60;99.40
23691;DHT22;43867;50.836;4.364;2022-07-05T07:27:51;22.10;99.50
23691;DHT22;43867;50.836;4.364;2022-07-05T07:30:19;21.60;99.90
23691;DHT22;43867;50.836;4.364;2022-07-05T07:32:45;21.30;99.90
23691;DHT22;43867;50.836;4.364;2022-07-05T07:35:11;21.70;99.90
23691;DHT22;43867;50.836;4.364;2022-07-05T07:37:37;21.90;99.90
23691;DHT22;43867;50.836;4.364;2022-07-05T07:40:03;22.20;99.90
23691;DHT22;43867;50.836;4.364;2022-07-05T07:42:29;22.30;99.80
23691;DHT22;43867;50.836;4.364;2022-07-05T07:44:55;22.20;99.90
23691;DHT22;43867;50.836;4.364;2022-07-05T07:47:21;22.80;99.40
23691;DHT22;43867;50.836;4.364;2022-07-05T07:49:46;22.80;99.70
23691;DHT22;43867;50.836;4.364;2022-07-05T07:52:12;23.00;99.30
23691;DHT22;43867;50.836;4.364;2022-07-05T07:54:38;23.30;98.00
23691;DHT22;43867;50.836;4.364;2022-07-05T07:57:04;23.50;97.40
23691;DHT22;43867;50.836;4.364;2022-07-05T07:59:33;23.80;97.10
23691;DHT22;43867;50.836;4.364;2022-07-05T08:01:59;23.80;96.90
23691;DHT22;43867;50.836;4.364;2022-07-05T08:04:25;24.00;97.20
23691;DHT22;43867;50.836;4.364;2022-07-05T08:06:50;23.50;96.40
23691;DHT22;43867;50.836;4.364;2022-07-05T08:09:16;23.40;97.60
23691;DHT22;43867;50.836;4.364;2022-07-05T08:11:43;23.80;96.60
23691;DHT22;43867;50.836;4.364;2022-07-05T08:14:09;23.70;96.30
23691;DHT22;43867;50.836;4.364;2022-07-05T08:16:34;23.90;95.70
23691;DHT22;43867;50.836;4.364;2022-07-05T08:19:00;23.80;94.90
23691;DHT22;43867;50.836;4.364;2022-07-05T08:21:44;23.40;95.80
23691;DHT22;43867;50.836;4.364;2022-07-05T08:24:10;23.80;96.00
23691;DHT22;43867;50.836;4.364;2022-07-05T08:26:37;23.80;95.00
23691;DHT22;43867;50.836;4.364;2022-07-05T08:29:04;23.60;94.50
23691;DHT22;43867;50.836;4.364;2022-07-05T08:31:35;23.20;95.80
23691;DHT22;43867;50.836;4.364;2022-07-05T08:34:01;23.60;96.20
23691;DHT22;43867;50.836;4.364;2022-07-05T08:36:27;23.60;95.30
23691;DHT22;43867;50.836;4.364;2022-07-05T08:38:52;23.40;95.30
23691;DHT22;43867;50.836;4.364;2022-07-05T08:41:19;23.00;96.00
23691;DHT22;43867;50.836;4.364;2022-07-05T08:43:45;22.70;97.40
23691;DHT22;43867;50.836;4.364;2022-07-05T08:46:11;22.70;98.60
23691;DHT22;43867;50.836;4.364;2022-07-05T08:48:37;23.00;98.40
23691;DHT22;43867;50.836;4.364;2022-07-05T08:53:35;23.20;97.20
23691;DHT22;43867;50.836;4.364;2022-07-05T08:56:00;23.30;96.80
23691;DHT22;43867;50.836;4.364;2022-07-05T08:58:26;23.50;95.70
23691;DHT22;43867;50.836;4.364;2022-07-05T09:00:53;23.50;96.20
23691;DHT22;43867;50.836;4.364;2022-07-05T09:03:18;24.00;95.80
23691;DHT22;43867;50.836;4.364;2022-07-05T09:05:47;24.50;93.50
23691;DHT22;43867;50.836;4.364;2022-07-05T09:08:14;25.00;90.80
23691;DHT22;43867;50.836;4.364;2022-07-05T09:10:42;25.20;90.40
23691;DHT22;43867;50.836;4.364;2022-07-05T09:13:07;25.20;87.80
23691;DHT22;43867;50.836;4.364;2022-07-05T09:15:33;25.10;85.00
23691;DHT22;43867;50.836;4.364;2022-07-05T09:17:59;25.00;81.80
23691;DHT22;43867;50.836;4.364;2022-07-05T09:20:26;25.20;86.60
23691;DHT22;43867;50.836;4.364;2022-07-05T09:22:52;25.80;83.60
23691;DHT22;43867;50.836;4.364;2022-07-05T09:25:22;25.90;79.40
23691;DHT22;43867;50.836;4.364;2022-07-05T09:27:52;26.00;80.60
23691;DHT22;43867;50.836;4.364;2022-07-05T09:33:01;26.30;80.90
23691;DHT22;43867;50.836;4.364;2022-07-05T09:35:27;25.80;79.20
23691;DHT22;43867;50.836;4.364;2022-07-05T09:37:53;25.40;81.30
23691;DHT22;43867;50.836;4.364;2022-07-05T09:40:19;25.70;81.40
23691;DHT22;43867;50.836;4.364;2022-07-05T09:42:45;26.20;79.40
23691;DHT22;43867;50.836;4.364;2022-07-05T09:45:10;26.20;79.30
23691;DHT22;43867;50.836;4.364;2022-07-05T09:47:36;26.40;78.60
23691;DHT22;43867;50.836;4.364;2022-07-05T09:50:01;26.80;76.50
23691;DHT22;43867;50.836;4.364;2022-07-05T09:52:33;27.50;71.50
23691;DHT22;43867;50.836;4.364;2022-07-05T09:57:28;26.80;67.70
23691;DHT22;43867;50.836;4.364;2022-07-05T10:00:07;26.20;72.00
23691;DHT22;43867;50.836;4.364;2022-07-05T10:02:34;26.00;74.50
23691;DHT22;43867;50.836;4.364;2022-07-05T10:05:10;26.30;73.60
23691;DHT22;43867;50.836;4.364;2022-07-05T10:07:36;26.10;76.00
23691;DHT22;43867;50.836;4.364;2022-07-05T10:10:04;26.70;73.10
23691;DHT22;43867;50.836;4.364;2022-07-05T10:12:29;27.00;69.40
23691;DHT22;43867;50.836;4.364;2022-07-05T10:14:56;26.90;64.50
23691;DHT22;43867;50.836;4.364;2022-07-05T10:17:22;26.50;66.10
23691;DHT22;43867;50.836;4.364;2022-07-05T10:19:48;26.60;64.90
23691;DHT22;43867;50.836;4.364;2022-07-05T10:22:14;26.50;63.00
23691;DHT22;43867;50.836;4.364;2022-07-05T10:24:40;26.30;60.90
23691;DHT22;43867;50.836;4.364;2022-07-05T10:27:15;25.90;59.90
23691;DHT22;43867;50.836;4.364;2022-07-05T10:29:42;26.00;62.00
23691;DHT22;43867;50.836;4.364;2022-07-05T10:32:09;26.30;61.50
23691;DHT22;43867;50.836;4.364;2022-07-05T10:34:36;25.60;60.80
23691;DHT22;43867;50.836;4.364;2022-07-05T10:37:03;25.60;62.20
23691;DHT22;43867;50.836;4.364;2022-07-05T10:39:29;25.30;61.60
23691;DHT22;43867;50.836;4.364;2022-07-05T10:41:55;25.60;63.60
23691;DHT22;43867;50.836;4.364;2022-07-05T10:44:34;25.30;63.10
23691;DHT22;43867;50.836;4.364;2022-07-05T10:47:10;25.40;64.20
23691;DHT22;43867;50.836;4.364;2022-07-05T10:49:36;25.60;64.20
23691;DHT22;43867;50.836;4.364;2022-07-05T10:52:02;25.80;63.10
23691;DHT22;43867;50.836;4.364;2022-07-05T10:54:28;26.00;61.80
23691;DHT22;43867;50.836;4.364;2022-07-05T10:57:27;25.70;62.20
23691;DHT22;43867;50.836;4.364;2022-07-05T11:00:04;25.50;61.60
23691;DHT22;43867;50.836;4.364;2022-07-05T11:02:29;25.20;60.50
23691;DHT22;43867;50.836;4.364;2022-07-05T11:04:56;25.70;58.90
23691;DHT22;43867;50.836;4.364;2022-07-05T11:10:06;25.70;60.90
23691;DHT22;43867;50.836;4.364;2022-07-05T11:12:35;26.10;59.30
23691;DHT22;43867;50.836;4.364;2022-07-05T11:15:06;26.30;59.20
23691;DHT22;43867;50.836;4.364;2022-07-05T11:17:34;26.30;60.10
23691;DHT22;43867;50.836;4.364;2022-07-05T11:22:41;25.60;60.20
23691;DHT22;43867;50.836;4.364;2022-07-05T11:25:07;25.20;60.30
23691;DHT22;43867;50.836;4.364;2022-07-05T11:27:35;25.20;60.20
23691;DHT22;43867;50.836;4.364;2022-07-05T11:30:01;25.10;58.90
23691;DHT22;43867;50.836;4.364;2022-07-05T11:35:11;25.30;59.30
23691;DHT22;43867;50.836;4.364;2022-07-05T11:37:56;25.30;59.00
23691;DHT22;43867;50.836;4.364;2022-07-05T11:42:48;24.90;62.20
23691;DHT22;43867;50.836;4.364;2022-07-05T11:45:15;24.90;62.00
23691;DHT22;43867;50.836;4.364;2022-07-05T11:47:41;24.80;60.60
23691;DHT22;43867;50.836;4.364;2022-07-05T11:50:08;24.70;60.70
23691;DHT22;43867;50.836;4.364;2022-07-05T11:52:34;24.90;61.90
23691;DHT22;43867;50.836;4.364;2022-07-05T11:55:01;25.00;58.70
23691;DHT22;43867;50.836;4.364;2022-07-05T11:57:27;25.10;58.40
23691;DHT22;43867;50.836;4.364;2022-07-05T11:59:53;24.70;60.00
23691;DHT22;43867;50.836;4.364;2022-07-05T12:02:18;24.80;59.70
23691;DHT22;43867;50.836;4.364;2022-07-05T12:04:48;24.90;59.80
23691;DHT22;43867;50.836;4.364;2022-07-05T12:09:52;25.00;60.60
23691;DHT22;43867;50.836;4.364;2022-07-05T12:12:36;25.00;61.20
23691;DHT22;43867;50.836;4.364;2022-07-05T12:17:34;25.20;60.40
23691;DHT22;43867;50.836;4.364;2022-07-05T12:20:00;25.20;61.40
23691;DHT22;43867;50.836;4.364;2022-07-05T12:24:58;25.40;62.10
23691;DHT22;43867;50.836;4.364;2022-07-05T12:27:25;25.80;61.00
23691;DHT22;43867;50.836;4.364;2022-07-05T12:29:51;25.90;59.70
23691;DHT22;43867;50.836;4.364;2022-07-05T12:32:16;25.80;59.60
23691;DHT22;43867;50.836;4.364;2022-07-05T12:34:42;25.70;60.70
23691;DHT22;43867;50.836;4.364;2022-07-05T12:37:07;25.60;58.90
23691;DHT22;43867;50.836;4.364;2022-07-05T12:39:34;25.30;59.70
23691;DHT22;43867;50.836;4.364;2022-07-05T12:42:00;25.10;61.70
23691;DHT22;43867;50.836;4.364;2022-07-05T12:44:26;24.60;64.50
23691;DHT22;43867;50.836;4.364;2022-07-05T12:46:52;24.60;65.10
23691;DHT22;43867;50.836;4.364;2022-07-05T12:49:28;24.60;65.00
23691;DHT22;43867;50.836;4.364;2022-07-05T12:51:53;24.60;65.30
23691;DHT22;43867;50.836;4.364;2022-07-05T12:54:28;24.40;65.60
23691;DHT22;43867;50.836;4.364;2022-07-05T12:57:14;24.00;66.70
23691;DHT22;43867;50.836;4.364;2022-07-05T13:00:05;24.20;69.20
23691;DHT22;43867;50.836;4.364;2022-07-05T13:05:08;23.80;69.70
23691;DHT22;43867;50.836;4.364;2022-07-05T13:07:37;23.60;70.60
23691;DHT22;43867;50.836;4.364;2022-07-05T13:10:15;23.90;70.20
23691;DHT22;43867;50.836;4.364;2022-07-05T13:12:41;24.20;70.10
23691;DHT22;43867;50.836;4.364;2022-07-05T13:15:07;24.30;68.40
23691;DHT22;43867;50.836;4.364;2022-07-05T13:17:32;24.40;69.00
23691;DHT22;43867;50.836;4.364;2022-07-05T13:19:58;24.40;68.60
23691;DHT22;43867;50.836;4.364;2022-07-05T13:22:25;24.30;68.50
23691;DHT22;43867;50.836;4.364;2022-07-05T13:24:50;24.00;69.50
23691;DHT22;43867;50.836;4.364;2022-07-05T13:27:16;23.90;70.00
23691;DHT22;43867;50.836;4.364;2022-07-05T13:29:42;23.90;69.50
23691;DHT22;43867;50.836;4.364;2022-07-05T13:32:08;23.90;69.70
23691;DHT22;43867;50.836;4.364;2022-07-05T13:34:35;23.60;70.70
23691;DHT22;43867;50.836;4.364;2022-07-05T13:37:02;23.40;72.10
23691;DHT22;43867;50.836;4.364;2022-07-05T13:39:30;23.20;72.10
23691;DHT22;43867;50.836;4.364;2022-07-05T13:41:56;23.20;72.20
23691;DHT22;43867;50.836;4.364;2022-07-05T13:44:23;23.30;72.30
23691;DHT22;43867;50.836;4.364;2022-07-05T13:46:49;23.10;72.30
23691;DHT22;43867;50.836;4.364;2022-07-05T13:49:16;22.90;73.70
23691;DHT22;43867;50.836;4.364;2022-07-05T13:51:42;23.00;73.90
23691;DHT22;43867;50.836;4.364;2022-07-05T13:54:10;23.00;73.80
23691;DHT22;43867;50.836;4.364;2022-07-05T13:56:36;23.10;73.20
23691;DHT22;43867;50.836;4.364;2022-07-05T13:59:02;23.00;74.10
23691;DHT22;43867;50.836;4.364;2022-07-05T14:01:28;22.70;75.00
23691;DHT22;43867;50.836;4.364;2022-07-05T14:03:59;22.40;76.30
23691;DHT22;43867;50.836;4.364;2022-07-05T14:06:26;22.30;77.40
23691;DHT22;43867;50.836;4.364;2022-07-05T14:08:51;22.40;77.40
23691;DHT22;43867;50.836;4.364;2022-07-05T14:11:17;22.30;77.70
23691;DHT22;43867;50.836;4.364;2022-07-05T14:13:43;22.30;79.10
23691;DHT22;43867;50.836;4.364;2022-07-05T14:16:08;22.20;78.10
23691;DHT22;43867;50.836;4.364;2022-07-05T14:18:34;22.20;78.50
23691;DHT22;43867;50.836;4.364;2022-07-05T14:21:00;22.10;79.20
23691;DHT22;43867;50.836;4.364;2022-07-05T14:23:25;22.10;79.30
23691;DHT22;43867;50.836;4.364;2022-07-05T14:25:51;22.10;78.60
23691;DHT22;43867;50.836;4.364;2022-07-05T14:28:18;22.10;78.90
23691;DHT22;43867;50.836;4.364;2022-07-05T14:33:53;22.20;77.80
23691;DHT22;43867;50.836;4.364;2022-07-05T14:36:19;22.30;78.20
23691;DHT22;43867;50.836;4.364;2022-07-05T14:38:45;22.40;78.40
23691;DHT22;43867;50.836;4.364;2022-07-05T14:41:10;22.30;78.20
23691;DHT22;43867;50.836;4.364;2022-07-05T14:43:36;22.30;78.30
23691;DHT22;43867;50.836;4.364;2022-07-05T14:46:01;22.20;77.60
23691;DHT22;43867;50.836;4.364;2022-07-05T14:48:27;22.30;78.50
23691;DHT22;43867;50.836;4.364;2022-07-05T14:50:53;22.40;78.80
23691;DHT22;43867;50.836;4.364;2022-07-05T14:53:19;22.20;79.10
23691;DHT22;43867;50.836;4.364;2022-07-05T14:55:44;22.10;79.90
23691;DHT22;43867;50.836;4.364;2022-07-05T14:58:10;22.10;80.30
23691;DHT22;43867;50.836;4.364;2022-07-05T15:00:35;22.30;80.00
23691;DHT22;43867;50.836;4.364;2022-07-05T15:03:01;22.40;78.70
23691;DHT22;43867;50.836;4.364;2022-07-05T15:05:35;22.60;78.50
23691;DHT22;43867;50.836;4.364;2022-07-05T15:08:00;22.50;78.70
23691;DHT22;43867;50.836;4.364;2022-07-05T15:10:26;22.70;77.70
23691;DHT22;43867;50.836;4.364;2022-07-05T15:12:51;22.80;76.90
23691;DHT22;43867;50.836;4.364;2022-07-05T15:15:17;22.80;76.80
23691;DHT22;43867;50.836;4.364;2022-07-05T15:17:43;22.70;75.60
23691;DHT22;43867;50.836;4.364;2022-07-05T15:20:09;22.60;75.30
23691;DHT22;43867;50.836;4.364;2022-07-05T15:22:36;22.40;76.10
23691;DHT22;43867;50.836;4.364;2022-07-05T15:25:02;22.40;76.70
23691;DHT22;43867;50.836;4.364;2022-07-05T15:27:28;22.60;76.10
23691;DHT22;43867;50.836;4.364;2022-07-05T15:29:57;22.60;75.40
23691;DHT22;43867;50.836;4.364;2022-07-05T15:32:24;22.60;74.80
23691;DHT22;43867;50.836;4.364;2022-07-05T15:34:50;22.60;73.90
23691;DHT22;43867;50.836;4.364;2022-07-05T15:37:16;22.20;74.60
23691;DHT22;43867;50.836;4.364;2022-07-05T15:42:13;22.00;74.70
23691;DHT22;43867;50.836;4.364;2022-07-05T15:44:41;22.00;74.50
23691;DHT22;43867;50.836;4.364;2022-07-05T15:47:06;21.90;74.30
23691;DHT22;43867;50.836;4.364;2022-07-05T15:52:04;22.00;73.30
23691;DHT22;43867;50.836;4.364;2022-07-05T15:54:30;22.00;73.70
23691;DHT22;43867;50.836;4.364;2022-07-05T15:56:56;21.90;74.00
23691;DHT22;43867;50.836;4.364;2022-07-05T15:59:23;21.90;74.40
23691;DHT22;43867;50.836;4.364;2022-07-05T16:01:52;21.80;74.20
23691;DHT22;43867;50.836;4.364;2022-07-05T16:04:19;22.00;73.20